createdAt,value
2018-01-20T00:02:22.170Z,12.70
2018-01-20T00:04:50.820Z,14.07
2018-01-20T00:07:18.947Z,14.90
2018-01-20T00:09:59.053Z,16.67
2018-01-20T00:12:27.157Z,13.10
2018-01-20T00:14:55.332Z,14.80
2018-01-20T00:17:23.429Z,13.43
2018-01-20T00:19:51.560Z,18.83
2018-01-20T00:22:23.364Z,12.70
2018-01-20T00:24:57.074Z,11.27
2018-01-20T00:27:25.184Z,15.13
2018-01-20T00:29:53.309Z,13.80
2018-01-20T00:32:21.429Z,13.67
2018-01-20T00:34:49.568Z,12.23
2018-01-20T00:37:17.669Z,11.97
2018-01-20T00:39:45.808Z,18.43
2018-01-20T00:42:13.925Z,9.87
2018-01-20T00:44:42.822Z,12.10
2018-01-20T00:47:11.708Z,8.83
2018-01-20T00:49:40.603Z,11.60
2018-01-20T00:52:09.470Z,9.70
2018-01-20T00:54:37.616Z,11.47
2018-01-20T00:57:05.726Z,12.53
2018-01-20T00:59:33.874Z,7.33
2018-01-20T01:02:02.184Z,11.43
2018-01-20T01:04:30.391Z,9.07
2018-01-20T01:06:58.500Z,10.47
2018-01-20T01:09:26.669Z,29.40
2018-01-20T01:11:54.772Z,8.50
2018-01-20T01:14:22.903Z,8.60
2018-01-20T01:16:51.003Z,9.73
2018-01-20T01:19:19.143Z,9.93
2018-01-20T01:21:47.253Z,9.30
2018-01-20T01:24:15.405Z,9.03
2018-01-20T01:26:43.544Z,9.77
2018-01-20T01:29:11.660Z,11.47
2018-01-20T01:31:39.771Z,8.83
2018-01-20T01:34:07.921Z,9.80
2018-01-20T01:36:36.028Z,10.97
2018-01-20T01:39:04.162Z,8.83
2018-01-20T01:41:32.276Z,11.80
2018-01-20T01:44:00.412Z,10.53
2018-01-20T01:46:28.527Z,12.07
2018-01-20T01:48:56.668Z,11.33
2018-01-20T01:51:24.792Z,10.77
2018-01-20T01:53:52.921Z,12.10
2018-01-20T01:56:21.790Z,9.87
2018-01-20T01:58:49.966Z,8.90
2018-01-20T02:01:18.057Z,10.77
2018-01-20T02:03:46.962Z,11.67
2018-01-20T02:06:15.841Z,11.30
2018-01-20T02:08:44.751Z,11.33
2018-01-20T02:11:12.866Z,10.93
2018-01-20T02:13:40.975Z,10.50
2018-01-20T02:16:09.875Z,9.30
2018-01-20T02:18:38.753Z,10.13
2018-01-20T02:21:07.659Z,12.17
2018-01-20T02:23:36.549Z,14.50
2018-01-20T02:26:05.455Z,10.00
2018-01-20T02:28:33.563Z,7.87
2018-01-20T02:31:01.691Z,8.20
2018-01-20T02:33:30.573Z,8.43
2018-01-20T02:35:59.466Z,9.40
2018-01-20T02:38:28.337Z,6.60
2018-01-20T02:40:56.497Z,6.73
2018-01-20T02:43:24.593Z,6.30
2018-01-20T02:45:53.500Z,11.50
2018-01-20T02:48:22.369Z,8.13
2018-01-20T02:50:50.492Z,6.23
2018-01-20T02:53:18.596Z,6.47
2018-01-20T02:55:46.719Z,6.90
2018-01-20T02:58:15.290Z,7.23
2018-01-20T03:00:44.182Z,6.50
2018-01-20T03:03:13.057Z,6.10
2018-01-20T03:05:41.973Z,5.80
2018-01-20T03:08:10.095Z,12.10
2018-01-20T03:10:38.216Z,7.20
2018-01-20T03:13:06.330Z,10.57
2018-01-20T03:15:34.446Z,6.03
2018-01-20T03:18:03.774Z,5.50
2018-01-20T03:20:32.047Z,7.43
2018-01-20T03:23:00.607Z,8.97
2018-01-20T03:25:29.498Z,6.00
2018-01-20T03:27:58.384Z,5.20
2018-01-20T03:30:27.279Z,5.90
2018-01-20T03:32:56.142Z,6.77
2018-01-20T03:35:24.286Z,6.30
2018-01-20T03:37:52.388Z,6.67
2018-01-20T03:40:20.511Z,7.07
2018-01-20T03:42:48.606Z,7.57
2018-01-20T03:45:17.516Z,6.33
2018-01-20T03:47:45.626Z,6.37
2018-01-20T03:50:14.526Z,7.53
2018-01-20T03:52:43.387Z,7.17
2018-01-20T03:55:11.519Z,5.80
2018-01-20T03:57:39.615Z,8.43
2018-01-20T04:00:07.751Z,6.70
2018-01-20T04:02:38.564Z,6.97
2018-01-20T04:05:06.698Z,6.40
2018-01-20T04:07:34.802Z,5.67
2018-01-20T04:10:04.057Z,12.67
2018-01-20T04:12:32.176Z,10.63
2018-01-20T04:15:01.088Z,13.33
2018-01-20T04:17:29.199Z,14.23
2018-01-20T04:19:57.336Z,10.73
2018-01-20T04:22:25.461Z,11.53
2018-01-20T04:24:53.592Z,15.93
2018-01-20T04:27:21.697Z,9.57
2018-01-20T04:29:49.857Z,12.80
2018-01-20T04:32:18.738Z,11.07
2018-01-20T04:34:46.870Z,14.43
2018-01-20T04:37:15.767Z,10.97
2018-01-20T04:39:44.658Z,11.77
2018-01-20T04:42:13.555Z,16.93
2018-01-20T04:44:42.465Z,13.60
2018-01-20T04:47:10.574Z,11.27
2018-01-20T04:49:38.731Z,11.30
2018-01-20T04:52:06.847Z,12.93
2018-01-20T04:54:35.764Z,13.60
2018-01-20T04:57:04.117Z,12.40
2018-01-20T04:59:32.236Z,14.30
2018-01-20T05:02:00.368Z,18.20
2018-01-20T05:04:28.478Z,13.00
2018-01-20T05:06:56.602Z,18.57
2018-01-20T05:09:24.706Z,14.83
2018-01-20T05:11:52.849Z,16.10
2018-01-20T05:14:20.955Z,18.60
2018-01-20T05:16:49.086Z,15.63
2018-01-20T05:19:17.197Z,11.87
2018-01-20T05:21:45.336Z,12.30
2018-01-20T05:24:13.456Z,16.67
2018-01-20T05:26:41.649Z,16.73
2018-01-20T05:29:09.799Z,18.07
2018-01-20T05:31:37.939Z,19.23
2018-01-20T05:34:06.075Z,19.37
2018-01-20T05:36:34.263Z,15.63
2018-01-20T05:39:02.996Z,16.93
2018-01-20T05:41:31.151Z,19.20
2018-01-20T05:43:59.259Z,13.73
2018-01-20T05:46:27.415Z,14.37
2018-01-20T05:48:55.535Z,19.23
2018-01-20T05:51:23.690Z,15.93
2018-01-20T05:53:51.816Z,17.47
2018-01-20T05:56:20.737Z,16.53
2018-01-20T05:58:48.843Z,15.80
2018-01-20T06:01:16.977Z,16.00
2018-01-20T06:03:45.084Z,15.50
2018-01-20T06:06:13.234Z,12.20
2018-01-20T06:08:41.357Z,14.00
2018-01-20T06:11:09.484Z,16.00
2018-01-20T06:13:37.609Z,19.70
2018-01-20T06:16:05.748Z,19.80
2018-01-20T06:18:33.859Z,21.33
2018-01-20T06:21:02.004Z,17.67
2018-01-20T06:23:30.116Z,14.47
2018-01-20T06:25:59.011Z,14.40
2018-01-20T06:28:27.888Z,18.20
2018-01-20T06:30:56.786Z,17.50
2018-01-20T06:33:25.663Z,16.97
2018-01-20T06:35:53.811Z,19.63
2018-01-20T06:38:21.924Z,13.43
2018-01-20T06:40:50.856Z,22.97
2018-01-20T06:43:19.459Z,21.30
2018-01-20T06:45:47.598Z,18.23
2018-01-20T06:48:15.716Z,14.33
2018-01-20T06:50:43.860Z,19.47
2018-01-20T06:53:11.988Z,13.90
2018-01-20T06:55:40.887Z,13.80
2018-01-20T06:58:09.775Z,19.97
2018-01-20T07:00:38.671Z,16.53
2018-01-20T07:03:07.567Z,19.20
2018-01-20T07:05:36.562Z,13.43
2018-01-20T07:08:06.474Z,15.00
2018-01-20T07:10:36.555Z,15.60
2018-01-20T07:13:06.955Z,14.83
2018-01-20T07:15:35.215Z,18.23
2018-01-20T07:18:06.029Z,13.83
2018-01-20T07:20:35.386Z,14.20
2018-01-20T07:23:03.800Z,15.50
2018-01-20T07:25:32.925Z,15.27
2018-01-20T07:28:01.191Z,15.60
2018-01-20T07:30:29.328Z,10.80
2018-01-20T07:32:58.265Z,13.53
2018-01-20T07:35:26.887Z,14.47
2018-01-20T07:37:55.119Z,16.70
2018-01-20T07:40:25.051Z,14.97
2018-01-20T07:42:53.172Z,14.07
2018-01-20T07:45:22.078Z,17.03
2018-01-20T07:47:51.022Z,18.13
2018-01-20T07:50:19.131Z,12.90
2018-01-20T07:52:47.294Z,16.03
2018-01-20T07:55:15.411Z,14.07
2018-01-20T07:57:44.070Z,15.60
2018-01-20T08:00:12.190Z,19.13
2018-01-20T08:02:40.317Z,14.60
2018-01-20T08:05:09.195Z,13.50
2018-01-20T08:07:37.338Z,11.27
2018-01-20T08:10:05.446Z,12.63
2018-01-20T08:12:33.584Z,13.43
2018-01-20T08:15:01.704Z,13.93
2018-01-20T08:17:30.185Z,13.03
2018-01-20T08:19:59.075Z,12.37
2018-01-20T08:22:27.964Z,14.30
2018-01-20T08:24:56.847Z,15.03
2018-01-20T08:27:24.976Z,12.83
2018-01-20T08:29:53.087Z,13.33
2018-01-20T08:32:21.232Z,16.53
2018-01-20T08:34:49.345Z,12.40
2018-01-20T08:37:18.240Z,15.67
2018-01-20T08:39:47.191Z,19.70
2018-01-20T08:42:15.377Z,14.77
2018-01-20T08:44:43.491Z,11.80
2018-01-20T08:47:12.394Z,14.10
2018-01-20T08:49:40.515Z,11.57
2018-01-20T08:52:08.669Z,17.97
2018-01-20T08:54:36.778Z,18.53
2018-01-20T08:57:04.907Z,11.20
2018-01-20T08:59:33.014Z,14.77
2018-01-20T09:02:01.152Z,13.30
2018-01-20T09:04:29.517Z,12.07
2018-01-20T09:06:57.687Z,11.40
2018-01-20T09:09:25.794Z,14.97
2018-01-20T09:11:53.930Z,17.93
2018-01-20T09:14:22.037Z,13.63
2018-01-20T09:16:50.180Z,12.93
2018-01-20T09:19:18.588Z,12.80
2018-01-20T09:21:47.114Z,13.07
2018-01-20T09:24:16.216Z,15.80
2018-01-20T09:26:44.886Z,15.97
2018-01-20T09:29:13.378Z,15.60
2018-01-20T09:31:42.293Z,20.10
2018-01-20T09:34:10.412Z,14.97
2018-01-20T09:36:38.543Z,14.90
2018-01-20T09:39:06.660Z,15.90
2018-01-20T09:41:34.805Z,14.70
2018-01-20T09:44:02.952Z,22.70
2018-01-20T09:46:31.848Z,14.37
2018-01-20T09:48:59.957Z,32.90
2018-01-20T09:51:30.558Z,24.97
2018-01-20T09:53:59.661Z,23.80
2018-01-20T09:56:27.832Z,22.97
2018-01-20T09:59:05.457Z,23.90
2018-01-20T10:01:35.328Z,50.07
2018-01-20T10:04:07.884Z,17.87
2018-01-20T10:06:36.119Z,19.10
2018-01-20T10:09:04.360Z,16.77
2018-01-20T10:11:32.683Z,15.13
2018-01-20T10:14:00.826Z,19.47
2018-01-20T10:16:28.967Z,18.37
2018-01-20T10:18:57.887Z,17.23
2018-01-20T10:21:26.055Z,15.83
2018-01-20T10:23:54.176Z,16.53
2018-01-20T10:26:22.296Z,12.60
2018-01-20T10:28:50.483Z,15.27
2018-01-20T10:31:18.625Z,10.73
2018-01-20T10:33:47.524Z,17.67
2018-01-20T10:36:16.404Z,11.53
2018-01-20T10:38:44.547Z,14.73
2018-01-20T10:41:12.654Z,15.40
2018-01-20T10:43:41.579Z,15.40
2018-01-20T10:46:09.691Z,17.20
2018-01-20T10:48:37.830Z,18.00
2018-01-20T10:51:05.959Z,20.27
2018-01-20T10:53:34.097Z,12.70
2018-01-20T10:56:02.198Z,11.00
2018-01-20T10:58:30.324Z,16.30
2018-01-20T11:00:58.455Z,17.73
2018-01-20T11:03:27.358Z,18.87
2018-01-20T11:05:55.470Z,18.93
2018-01-20T11:08:23.610Z,15.53
2018-01-20T11:10:52.478Z,15.03
2018-01-20T11:13:21.378Z,16.47
2018-01-20T11:15:50.254Z,16.40
2018-01-20T11:18:18.423Z,13.47
2018-01-20T11:20:46.522Z,16.90
2018-01-20T11:23:14.674Z,12.30
2018-01-20T11:25:42.784Z,20.97
2018-01-20T11:28:10.913Z,15.77
2018-01-20T11:30:39.023Z,14.87
2018-01-20T11:33:07.175Z,14.70
2018-01-20T11:35:36.056Z,17.20
2018-01-20T11:38:04.318Z,20.03
2018-01-20T11:40:32.428Z,14.73
2018-01-20T11:43:01.318Z,17.90
2018-01-20T11:45:30.201Z,16.73
2018-01-20T11:47:59.090Z,17.90
2018-01-20T11:50:27.958Z,16.40
2018-01-20T11:52:56.100Z,13.07
2018-01-20T11:55:24.210Z,16.53
2018-01-20T11:57:52.355Z,18.73
2018-01-20T12:00:20.466Z,13.90
2018-01-20T12:02:48.596Z,12.60
2018-01-20T12:05:16.716Z,14.80
2018-01-20T12:07:45.636Z,13.13
2018-01-20T12:10:13.747Z,16.23
2018-01-20T12:12:41.913Z,14.20
2018-01-20T12:15:10.018Z,11.80
2018-01-20T12:20:06.291Z,11.60
2018-01-20T12:22:34.422Z,13.47
2018-01-20T12:25:02.536Z,13.70
2018-01-20T12:27:30.701Z,15.07
2018-01-20T12:29:59.586Z,10.87
2018-01-20T12:32:28.474Z,15.87
2018-01-20T12:34:57.353Z,14.20
2018-01-20T12:37:25.490Z,13.90
2018-01-20T12:39:53.605Z,17.43
2018-01-20T12:42:21.738Z,13.37
2018-01-20T12:44:49.859Z,21.10
2018-01-20T12:47:18.751Z,12.10
2018-01-20T12:49:47.634Z,17.17
2018-01-20T12:52:15.767Z,12.20
2018-01-20T12:54:43.895Z,12.33
2018-01-20T12:57:12.776Z,12.17
2018-01-20T12:59:41.682Z,19.53
2018-01-20T13:02:09.798Z,10.33
2018-01-20T13:04:37.930Z,13.03
2018-01-20T13:07:06.036Z,10.80
2018-01-20T13:09:34.180Z,11.33
2018-01-20T13:12:02.771Z,10.03
2018-01-20T13:14:31.836Z,12.93
2018-01-20T13:17:00.710Z,11.93
2018-01-20T13:19:28.843Z,8.83
2018-01-20T13:21:56.954Z,9.93
2018-01-20T13:24:25.097Z,8.53
2018-01-20T13:26:53.202Z,11.10
2018-01-20T13:29:21.332Z,12.80
2018-01-20T13:31:49.438Z,8.63
2018-01-20T13:34:17.573Z,11.77
2018-01-20T13:36:45.692Z,10.20
2018-01-20T13:39:13.821Z,12.00
2018-01-20T13:41:41.920Z,7.23
2018-01-20T13:44:10.045Z,8.30
2018-01-20T13:46:38.912Z,8.87
2018-01-20T13:49:07.444Z,12.07
2018-01-20T13:51:37.879Z,11.70
2018-01-20T13:54:07.008Z,11.13
2018-01-20T13:56:35.284Z,7.67
2018-01-20T13:59:05.120Z,11.37
2018-01-20T14:01:41.592Z,12.47
2018-01-20T14:04:10.899Z,9.13
2018-01-20T14:06:39.140Z,8.83
2018-01-20T14:09:07.424Z,9.50
2018-01-20T14:11:35.529Z,6.53
2018-01-20T14:14:04.288Z,7.70
2018-01-20T14:16:32.507Z,9.57
2018-01-20T14:19:03.051Z,8.90
2018-01-20T14:21:32.946Z,10.03
2018-01-20T14:24:01.109Z,8.13
2018-01-20T14:26:30.012Z,9.67
2018-01-20T14:28:58.180Z,8.57
2018-01-20T14:31:26.879Z,8.23
2018-01-20T14:33:55.008Z,8.53
2018-01-20T14:36:23.900Z,9.90
2018-01-20T14:38:52.619Z,10.13
2018-01-20T14:41:21.682Z,8.23
2018-01-20T14:43:49.828Z,9.90
2018-01-20T14:46:18.014Z,9.20
2018-01-20T14:48:46.175Z,6.63
2018-01-20T14:51:15.116Z,10.27
2018-01-20T14:53:43.456Z,12.30
2018-01-20T14:56:11.638Z,11.70
2018-01-20T14:58:39.871Z,9.00
2018-01-20T15:01:07.991Z,11.07
2018-01-20T15:03:36.132Z,9.20
2018-01-20T15:06:04.518Z,10.40
2018-01-20T15:08:32.775Z,10.90
2018-01-20T15:11:02.390Z,8.30
2018-01-20T15:13:30.771Z,6.37
2018-01-20T15:15:58.866Z,13.73
2018-01-20T15:18:27.147Z,9.27
2018-01-20T15:20:55.258Z,6.50
2018-01-20T15:23:23.418Z,7.80
2018-01-20T15:25:52.310Z,10.33
2018-01-20T15:28:20.440Z,7.63
2018-01-20T15:30:48.543Z,8.83
2018-01-20T15:33:16.668Z,11.80
2018-01-20T15:35:44.793Z,7.00
2018-01-20T15:38:12.913Z,7.77
2018-01-20T15:40:41.029Z,7.30
2018-01-20T15:43:09.143Z,10.37
2018-01-20T15:45:38.030Z,13.80
2018-01-20T15:48:06.911Z,7.47
2018-01-20T15:50:35.823Z,11.20
2018-01-20T15:53:03.934Z,12.03
2018-01-20T15:55:32.846Z,10.13
2018-01-20T15:58:01.055Z,8.80
2018-01-20T16:00:29.404Z,9.60
2018-01-20T16:02:57.509Z,12.23
2018-01-20T16:05:26.151Z,13.13
2018-01-20T16:07:54.263Z,10.43
2018-01-20T16:10:23.163Z,13.67
2018-01-20T16:12:51.290Z,6.50
2018-01-20T16:15:19.416Z,9.67
2018-01-20T16:17:47.554Z,9.27
2018-01-20T16:20:15.695Z,11.80
2018-01-20T16:22:43.823Z,11.20
2018-01-20T16:25:12.728Z,11.23
2018-01-20T16:27:40.833Z,10.53
2018-01-20T16:30:08.968Z,6.60
2018-01-20T16:32:37.831Z,8.90
2018-01-20T16:35:06.390Z,9.87
2018-01-20T16:37:34.486Z,8.80
2018-01-20T16:40:02.719Z,18.30
2018-01-20T16:42:31.162Z,25.40
2018-01-20T16:45:00.057Z,13.93
2018-01-20T16:47:28.214Z,15.77
2018-01-20T16:49:56.346Z,12.57
2018-01-20T16:52:24.454Z,9.23
2018-01-20T16:54:52.596Z,11.50
2018-01-20T16:57:20.712Z,14.17
2018-01-20T16:59:48.847Z,15.20
2018-01-20T17:02:16.970Z,9.17
2018-01-20T17:04:45.892Z,10.90
2018-01-20T17:07:13.992Z,16.73
2018-01-20T17:09:42.136Z,15.00
2018-01-20T17:12:10.251Z,26.20
2018-01-20T17:14:38.396Z,20.10
2018-01-20T17:17:06.604Z,16.83
2018-01-20T17:19:34.923Z,14.97
2018-01-20T17:22:03.094Z,15.60
2018-01-20T17:24:31.255Z,16.60
2018-01-20T17:27:00.140Z,19.70
2018-01-20T17:29:29.172Z,16.40
2018-01-20T17:31:57.270Z,13.70
2018-01-20T17:34:25.404Z,10.40
2018-01-20T17:36:53.513Z,13.53
2018-01-20T17:39:22.430Z,16.50
2018-01-20T17:41:50.539Z,13.90
2018-01-20T17:44:18.684Z,13.10
2018-01-20T17:46:46.815Z,19.70
2018-01-20T17:49:14.951Z,14.13
2018-01-20T17:51:43.825Z,16.67
2018-01-20T17:54:12.743Z,14.27
2018-01-20T17:56:40.855Z,15.57
2018-01-20T17:59:08.987Z,14.53
2018-01-20T18:01:37.094Z,15.47
2018-01-20T18:04:05.346Z,22.23
2018-01-20T18:06:33.442Z,14.40
2018-01-20T18:09:01.587Z,15.83
2018-01-20T18:11:29.695Z,22.13
2018-01-20T18:13:58.625Z,16.40
2018-01-20T18:16:27.525Z,24.03
2018-01-20T18:18:56.396Z,22.97
2018-01-20T18:21:25.319Z,29.60
2018-01-20T18:23:53.433Z,31.67
2018-01-20T18:26:22.331Z,23.03
2018-01-20T18:28:50.438Z,16.77
2018-01-20T18:31:19.331Z,12.13
2018-01-20T18:33:48.226Z,13.10
2018-01-20T18:36:17.115Z,13.80
2018-01-20T18:38:46.003Z,17.80
2018-01-20T18:41:14.903Z,19.93
2018-01-20T18:43:43.773Z,17.33
2018-01-20T18:46:11.913Z,19.80
2018-01-20T18:48:40.034Z,17.57
2018-01-20T18:51:08.984Z,19.80
2018-01-20T18:53:37.525Z,15.83
2018-01-20T18:56:05.687Z,20.00
2018-01-20T18:58:34.563Z,18.83
2018-01-20T19:01:02.690Z,21.47
2018-01-20T19:03:30.805Z,17.87
2018-01-20T19:05:58.944Z,15.40
2018-01-20T19:08:27.091Z,14.90
2018-01-20T19:10:55.227Z,17.73
2018-01-20T19:13:23.341Z,15.43
2018-01-20T19:15:51.948Z,11.57
2018-01-20T19:18:20.060Z,14.37
2018-01-20T19:20:48.205Z,21.20
2018-01-20T19:23:16.327Z,31.40
2018-01-20T19:25:45.223Z,15.60
2018-01-20T19:28:14.092Z,16.73
2018-01-20T19:30:42.218Z,16.53
2018-01-20T19:33:10.329Z,13.73
2018-01-20T19:35:38.488Z,16.40
2018-01-20T19:38:06.611Z,15.33
2018-01-20T19:40:34.740Z,14.77
2018-01-20T19:43:02.848Z,19.70
2018-01-20T19:45:31.759Z,18.07
2018-01-20T19:47:59.886Z,13.70
2018-01-20T19:50:28.067Z,15.83
2018-01-20T19:52:56.974Z,14.77
2018-01-20T19:55:25.869Z,15.37
2018-01-20T19:57:54.753Z,16.30
2018-01-20T20:00:23.644Z,14.60
2018-01-20T20:02:52.509Z,14.57
2018-01-20T20:05:20.638Z,18.37
2018-01-20T20:07:48.747Z,13.73
2018-01-20T20:10:16.888Z,15.57
2018-01-20T20:12:44.994Z,29.00
2018-01-20T20:15:13.132Z,14.93
2018-01-20T20:17:41.246Z,12.20
2018-01-20T20:20:09.362Z,13.20
2018-01-20T20:22:37.475Z,15.23
2018-01-20T20:25:06.363Z,15.30
2018-01-20T20:27:34.507Z,14.90
2018-01-20T20:30:02.640Z,17.83
2018-01-20T20:32:30.741Z,20.00
2018-01-20T20:34:58.874Z,16.30
2018-01-20T20:37:26.999Z,16.23
2018-01-20T20:39:55.146Z,21.20
2018-01-20T20:42:24.155Z,21.40
2018-01-20T20:44:52.479Z,17.80
2018-01-20T20:47:20.593Z,15.80
2018-01-20T20:49:49.634Z,18.07
2018-01-20T20:52:17.754Z,16.43
2018-01-20T20:54:45.877Z,16.70
2018-01-20T20:57:14.047Z,15.43
2018-01-20T20:59:42.149Z,13.00
2018-01-20T21:02:10.287Z,12.90
2018-01-20T21:04:38.444Z,11.80
2018-01-20T21:07:07.344Z,18.03
2018-01-20T21:09:35.571Z,15.90
2018-01-20T21:12:04.184Z,13.73
2018-01-20T21:14:32.338Z,11.47
2018-01-20T21:17:00.572Z,16.00
2018-01-20T21:19:28.684Z,16.67
2018-01-20T21:21:56.827Z,17.57
2018-01-20T21:24:24.926Z,18.43
2018-01-20T21:26:53.088Z,17.83
2018-01-20T21:29:21.193Z,16.13
2018-01-20T21:31:49.322Z,19.57
2018-01-20T21:34:17.518Z,16.70
2018-01-20T21:36:45.727Z,16.50
2018-01-20T21:39:13.872Z,17.87
2018-01-20T21:41:42.000Z,18.47
2018-01-20T21:44:10.103Z,16.87
2018-01-20T21:46:38.254Z,13.27
2018-01-20T21:49:06.369Z,14.93
2018-01-20T21:51:34.492Z,16.67
2018-01-20T21:54:03.959Z,16.33
2018-01-20T21:56:32.096Z,16.30
2018-01-20T21:59:00.213Z,19.43
2018-01-20T22:01:29.111Z,17.07
2018-01-20T22:03:57.996Z,23.57
2018-01-20T22:06:26.166Z,17.50
2018-01-20T22:08:54.293Z,16.87
2018-01-20T22:11:22.415Z,18.90
2018-01-20T22:13:51.309Z,20.57
2018-01-20T22:16:19.939Z,14.97
2018-01-20T22:18:48.046Z,16.13
2018-01-20T22:21:16.182Z,20.67
2018-01-20T22:23:44.290Z,21.87
2018-01-20T22:26:12.418Z,22.67
2018-01-20T22:28:40.538Z,20.93
2018-01-20T22:31:08.681Z,19.73
2018-01-20T22:33:36.800Z,17.40
2018-01-20T22:36:04.927Z,21.10
2018-01-20T22:38:33.029Z,19.00
2018-01-20T22:41:01.328Z,19.10
2018-01-20T22:43:29.482Z,19.10
2018-01-20T22:45:57.614Z,18.33
2018-01-20T22:48:25.722Z,16.90
2018-01-20T22:50:53.874Z,17.00
2018-01-20T22:53:21.990Z,18.77
2018-01-20T22:55:50.115Z,19.13
2018-01-20T22:58:18.232Z,18.63
2018-01-20T23:00:46.374Z,19.53
2018-01-20T23:03:14.543Z,20.13
2018-01-20T23:05:42.691Z,15.87
2018-01-20T23:08:11.351Z,15.93
2018-01-20T23:10:40.245Z,17.73
2018-01-20T23:13:09.154Z,16.37
2018-01-20T23:15:37.317Z,16.33
2018-01-20T23:18:06.252Z,18.47
2018-01-20T23:20:34.402Z,19.30
2018-01-20T23:23:03.281Z,18.93
2018-01-20T23:25:31.438Z,16.33
2018-01-20T23:28:00.348Z,19.27
2018-01-20T23:30:28.463Z,14.80
2018-01-20T23:32:56.591Z,14.53
2018-01-20T23:35:24.693Z,14.23
2018-01-20T23:37:52.820Z,14.23
2018-01-20T23:40:21.701Z,12.23
2018-01-20T23:42:50.599Z,13.43
2018-01-20T23:45:19.513Z,12.50
2018-01-20T23:47:47.643Z,13.40
2018-01-20T23:50:15.777Z,9.73
2018-01-20T23:52:43.913Z,15.00
2018-01-20T23:55:12.779Z,11.63
2018-01-20T23:57:40.932Z,12.53
